Time;durP1;ratioP1;P1;durP2;ratioP2;P2;SDS_P1;SDS_P2;PMS_P1;PMS_P2;Temp;Humidity;BMP_temperature;BMP_pressure;BME280_temperature;BME280_humidity;BME280_pressure;Samples;Min_cycle;Max_cycle;Signal;HPM_P1;HPM_P2
2023/08/06 00:00:41;;;;;;;5.25;3.70;;;19.70;99.90;;;;;;5096035;28;20124;-81
2023/08/06 00:03:07;;;;;;;6.47;3.97;;;19.80;99.90;;;;;;5096773;28;20391;-81
2023/08/06 00:05:32;;;;;;;7.75;3.83;;;19.80;99.90;;;;;;5097148;28;20382;-81
2023/08/06 00:07:58;;;;;;;7.00;3.60;;;19.80;99.90;;;;;;5097203;28;20035;-82
2023/08/06 00:10:24;;;;;;;5.32;3.95;;;19.70;99.90;;;;;;5095445;28;20444;-80
2023/08/06 00:12:50;;;;;;;6.68;3.95;;;19.70;99.90;;;;;;5097007;28;20056;-81
2023/08/06 00:15:15;;;;;;;4.85;3.40;;;19.70;99.90;;;;;;5114302;28;20024;-79
2023/08/06 00:17:41;;;;;;;5.82;3.70;;;19.70;99.90;;;;;;5099078;28;20370;-81
2023/08/06 00:20:07;;;;;;;6.63;3.53;;;19.70;99.90;;;;;;5095481;28;20115;-79
2023/08/06 00:22:35;;;;;;;6.13;3.85;;;19.70;99.90;;;;;;5096531;28;20027;-80
2023/08/06 00:25:01;;;;;;;7.22;3.78;;;19.60;99.90;;;;;;5115465;28;20514;-80
2023/08/06 00:27:27;;;;;;;6.13;3.83;;;19.70;99.90;;;;;;5110234;28;20497;-80
2023/08/06 00:29:53;;;;;;;4.32;3.40;;;19.70;99.90;;;;;;5096985;28;20030;-80
2023/08/06 00:32:19;;;;;;;6.80;3.40;;;19.70;99.90;;;;;;5095284;28;20066;-79
2023/08/06 00:34:45;;;;;;;4.75;3.42;;;19.60;99.90;;;;;;5096052;28;20463;-79
2023/08/06 00:37:10;;;;;;;4.72;3.40;;;19.60;99.90;;;;;;5096225;28;20029;-80
2023/08/06 00:39:36;;;;;;;7.03;3.28;;;19.60;99.90;;;;;;5096340;28;20016;-79
2023/08/06 00:42:02;;;;;;;5.30;3.47;;;19.70;99.90;;;;;;5096219;28;20032;-79
2023/08/06 00:44:28;;;;;;;6.53;3.25;;;19.70;99.90;;;;;;5095392;28;20024;-80
2023/08/06 00:46:53;;;;;;;5.82;4.07;;;19.60;99.90;;;;;;5096310;28;20481;-79
2023/08/06 00:49:19;;;;;;;6.68;3.70;;;19.60;99.90;;;;;;5104316;28;20457;-80
2023/08/06 00:51:45;;;;;;;5.32;3.42;;;19.70;99.90;;;;;;5102998;28;20035;-79
2023/08/06 00:54:11;;;;;;;7.32;3.65;;;19.70;99.90;;;;;;5104429;28;20031;-79
2023/08/06 00:56:37;;;;;;;5.47;3.80;;;19.70;99.90;;;;;;5106942;28;20027;-79
2023/08/06 00:59:05;;;;;;;6.13;3.92;;;19.60;99.90;;;;;;5109221;28;20031;-80
2023/08/06 01:01:31;;;;;;;5.10;3.50;;;19.70;99.90;;;;;;5101759;28;20062;-79
2023/08/06 01:03:56;;;;;;;5.07;3.60;;;19.70;99.90;;;;;;5102936;28;20042;-80
2023/08/06 01:06:50;;;;;;;6.80;4.53;;;19.60;99.90;;;;;;5104829;28;20024;-80
2023/08/06 01:09:35;;;;;;;6.68;4.38;;;19.60;99.90;;;;;;5102542;28;20070;-80
2023/08/06 01:12:32;;;;;;;8.80;4.63;;;19.60;99.90;;;;;;5103038;28;20048;-80
2023/08/06 01:15:15;;;;;;;7.15;5.35;;;19.60;99.90;;;;;;5101661;28;20027;-80
2023/08/06 01:17:41;;;;;;;13.07;5.50;;;19.60;99.90;;;;;;5103695;28;20030;-79
2023/08/06 01:20:07;;;;;;;9.05;6.47;;;19.60;99.90;;;;;;5094154;28;20024;-80
2023/08/06 01:22:33;;;;;;;11.50;7.75;;;19.60;99.90;;;;;;5099212;28;20380;-81
2023/08/06 01:24:59;;;;;;;9.77;7.68;;;19.60;99.90;;;;;;5109177;28;20028;-80
2023/08/06 01:27:49;;;;;;;14.82;7.88;;;19.60;99.90;;;;;;5106190;28;20509;-80
2023/08/06 01:30:29;;;;;;;11.15;7.40;;;19.60;99.90;;;;;;5108358;28;20027;-79
2023/08/06 01:33:00;;;;;;;9.77;7.10;;;19.70;99.90;;;;;;5106567;28;20031;-80
2023/08/06 01:35:28;;;;;;;13.77;7.68;;;19.70;99.90;;;;;;5114919;28;20476;-81
2023/08/06 01:37:56;;;;;;;11.23;7.57;;;19.70;99.90;;;;;;5100567;28;20115;-80
2023/08/06 01:40:22;;;;;;;15.07;8.57;;;19.70;99.90;;;;;;5100436;28;20027;-81
2023/08/06 01:42:48;;;;;;;11.60;7.22;;;19.80;99.90;;;;;;5110831;28;20031;-80
2023/08/06 01:45:14;;;;;;;13.25;8.80;;;19.70;99.90;;;;;;5094923;28;20028;-79
2023/08/06 01:47:40;;;;;;;10.32;6.93;;;19.70;99.90;;;;;;5101981;28;20058;-80
2023/08/06 01:50:06;;;;;;;13.27;7.70;;;19.70;99.90;;;;;;5107727;28;20059;-81
2023/08/06 01:52:32;;;;;;;10.30;7.13;;;19.70;99.90;;;;;;5105313;28;20397;-80
2023/08/06 01:54:57;;;;;;;10.00;7.00;;;19.70;99.90;;;;;;5104228;28;20038;-80
2023/08/06 01:57:23;;;;;;;11.35;7.47;;;19.70;99.90;;;;;;5109423;28;20111;-80
2023/08/06 01:59:49;;;;;;;11.50;7.45;;;19.80;99.90;;;;;;5102462;28;20111;-80
2023/08/06 02:02:15;;;;;;;10.95;7.05;;;19.80;99.90;;;;;;5106296;28;20386;-81
2023/08/06 02:04:40;;;;;;;13.85;9.25;;;19.80;99.90;;;;;;5106695;28;20427;-81
2023/08/06 02:07:06;;;;;;;10.32;7.35;;;19.80;99.90;;;;;;5102923;28;20066;-80
2023/08/06 02:09:32;;;;;;;14.02;8.45;;;19.80;99.90;;;;;;5108590;28;20138;-80
2023/08/06 02:11:58;;;;;;;8.82;7.10;;;19.70;99.90;;;;;;5108414;28;20086;-80
2023/08/06 02:14:23;;;;;;;8.98;6.45;;;19.80;99.90;;;;;;5107854;28;20032;-80
2023/08/06 02:16:50;;;;;;;8.68;7.20;;;19.80;99.90;;;;;;5107686;27;20024;-80
2023/08/06 02:19:15;;;;;;;9.85;7.75;;;19.70;99.90;;;;;;5095800;28;20032;-80
2023/08/06 02:21:41;;;;;;;9.07;7.47;;;19.70;99.90;;;;;;5100770;28;20501;-80
2023/08/06 02:24:07;;;;;;;14.38;7.38;;;19.70;99.90;;;;;;5100886;28;20043;-80
2023/08/06 02:26:33;;;;;;;9.63;7.07;;;19.70;99.90;;;;;;5107516;28;20027;-81
2023/08/06 02:28:58;;;;;;;11.18;6.90;;;19.80;99.90;;;;;;5098130;28;20034;-81
2023/08/06 02:31:24;;;;;;;11.27;6.93;;;19.80;99.90;;;;;;5100147;28;20028;-80
2023/08/06 02:33:50;;;;;;;9.18;6.75;;;19.80;99.90;;;;;;5112595;28;20024;-80
2023/08/06 02:36:15;;;;;;;11.32;7.60;;;19.80;99.90;;;;;;5100182;28;20070;-81
2023/08/06 02:38:41;;;;;;;9.38;6.97;;;19.80;99.90;;;;;;5105724;28;20059;-81
2023/08/06 02:41:07;;;;;;;9.15;6.65;;;19.90;99.90;;;;;;5107274;28;20445;-81
2023/08/06 02:43:33;;;;;;;7.85;6.18;;;19.90;99.90;;;;;;5105313;28;20034;-81
2023/08/06 02:45:59;;;;;;;13.32;8.43;;;19.90;99.90;;;;;;5108437;28;20023;-81
2023/08/06 02:48:25;;;;;;;8.05;6.85;;;19.90;99.90;;;;;;5113069;28;20031;-80
2023/08/06 02:50:51;;;;;;;8.30;6.50;;;19.80;99.90;;;;;;5102623;28;20020;-81
2023/08/06 02:53:17;;;;;;;10.52;7.10;;;19.80;99.90;;;;;;5093573;28;20039;-80
2023/08/06 02:55:50;;;;;;;10.45;7.05;;;19.80;99.90;;;;;;5092711;28;20035;-81
2023/08/06 02:58:17;;;;;;;9.52;7.60;;;19.80;99.90;;;;;;5093429;28;20016;-80
2023/08/06 03:00:45;;;;;;;10.38;7.60;;;19.80;99.90;;;;;;5097231;28;20030;-80
2023/08/06 03:03:11;;;;;;;9.07;7.10;;;19.80;99.90;;;;;;5110615;28;20474;-80
2023/08/06 03:05:37;;;;;;;14.05;9.57;;;19.80;99.90;;;;;;5107537;28;20027;-80
2023/08/06 03:08:03;;;;;;;15.45;10.40;;;19.80;99.90;;;;;;5099465;28;20030;-81
2023/08/06 03:10:28;;;;;;;17.52;10.45;;;19.80;99.90;;;;;;5103856;28;20024;-81
2023/08/06 03:12:54;;;;;;;13.98;9.77;;;19.80;99.90;;;;;;5098703;28;20051;-80
2023/08/06 03:15:20;;;;;;;12.65;9.40;;;19.90;99.90;;;;;;5106040;28;20106;-80
2023/08/06 03:17:46;;;;;;;14.65;8.50;;;19.80;99.90;;;;;;5099813;28;20142;-81
2023/08/06 03:20:11;;;;;;;15.40;8.45;;;19.80;99.90;;;;;;5108532;28;20032;-80
2023/08/06 03:22:37;;;;;;;11.70;8.27;;;19.80;99.90;;;;;;5102580;28;20062;-80
2023/08/06 03:25:03;;;;;;;14.02;8.95;;;19.90;99.90;;;;;;5108854;28;20110;-81
2023/08/06 03:27:29;;;;;;;13.45;9.07;;;19.90;99.90;;;;;;5104100;28;20039;-80
2023/08/06 03:29:55;;;;;;;11.20;8.88;;;19.90;99.90;;;;;;5105170;28;20020;-80
2023/08/06 03:32:21;;;;;;;16.75;8.38;;;19.90;99.90;;;;;;5102009;28;20034;-81
2023/08/06 03:34:46;;;;;;;12.70;8.98;;;19.90;99.90;;;;;;5106051;28;20028;-81
2023/08/06 03:37:12;;;;;;;13.50;9.10;;;19.90;99.90;;;;;;5108360;28;20024;-80
2023/08/06 03:39:38;;;;;;;13.85;8.80;;;19.90;99.90;;;;;;5104485;28;20032;-80
2023/08/06 03:42:04;;;;;;;11.32;9.20;;;19.90;99.90;;;;;;5111938;28;20502;-80
2023/08/06 03:44:30;;;;;;;12.32;9.48;;;19.90;99.90;;;;;;5109961;28;20028;-81
2023/08/06 03:46:56;;;;;;;12.43;9.73;;;20.00;99.90;;;;;;5104619;28;20020;-81
2023/08/06 03:49:22;;;;;;;15.52;10.65;;;20.00;99.90;;;;;;5104760;28;20389;-80
2023/08/06 03:51:48;;;;;;;13.60;10.50;;;20.00;99.90;;;;;;5107895;28;20031;-80
2023/08/06 03:54:13;;;;;;;14.50;10.40;;;20.00;99.90;;;;;;5106369;28;20386;-81
2023/08/06 03:56:39;;;;;;;14.70;10.18;;;20.00;99.90;;;;;;5110423;28;20080;-80
2023/08/06 03:59:05;;;;;;;14.00;10.77;;;20.10;99.90;;;;;;5105626;28;20028;-80
2023/08/06 04:01:30;;;;;;;19.70;10.80;;;20.10;99.90;;;;;;5110109;28;20036;-81
2023/08/06 04:03:56;;;;;;;16.45;12.10;;;20.10;99.90;;;;;;5117171;28;20019;-81
2023/08/06 04:06:22;;;;;;;19.80;11.77;;;20.00;99.90;;;;;;5096388;28;20037;-80
2023/08/06 04:08:48;;;;;;;16.13;11.88;;;20.00;99.90;;;;;;5097430;28;20036;-80
2023/08/06 04:11:13;;;;;;;18.27;12.82;;;20.00;99.90;;;;;;5096210;28;20098;-80
2023/08/06 04:13:43;;;;;;;19.92;13.32;;;20.00;99.90;;;;;;5105441;28;20110;-81
2023/08/06 04:16:08;;;;;;;19.00;13.25;;;20.10;99.90;;;;;;5103342;28;20386;-81
2023/08/06 04:18:34;;;;;;;26.92;13.77;;;20.10;99.90;;;;;;5108914;28;20024;-80
2023/08/06 04:21:02;;;;;;;19.67;14.13;;;20.10;99.90;;;;;;5109927;28;20026;-80
2023/08/06 04:23:27;;;;;;;18.55;13.43;;;20.00;99.90;;;;;;5100651;28;20035;-81
2023/08/06 04:25:57;;;;;;;18.20;13.98;;;20.10;99.90;;;;;;5109632;28;20522;-81
2023/08/06 04:28:23;;;;;;;19.63;13.13;;;20.10;99.90;;;;;;5099847;28;20038;-82
2023/08/06 04:30:48;;;;;;;19.42;13.25;;;20.10;99.90;;;;;;5103914;28;20427;-82
2023/08/06 04:33:14;;;;;;;22.70;13.52;;;20.10;99.90;;;;;;5111182;28;20028;-82
2023/08/06 04:35:40;;;;;;;20.70;10.43;;;20.10;99.90;;;;;;5103963;28;20381;-81
2023/08/06 04:38:06;;;;;;;11.88;8.88;;;20.10;99.90;;;;;;5113212;28;20035;-81
2023/08/06 04:40:35;;;;;;;13.05;7.60;;;20.10;99.90;;;;;;5109212;28;20015;-81
2023/08/06 04:43:01;;;;;;;10.38;7.30;;;20.20;99.90;;;;;;5106186;28;20088;-82
2023/08/06 04:45:27;;;;;;;14.38;6.60;;;20.10;99.90;;;;;;5103612;28;20019;-81
2023/08/06 04:47:52;;;;;;;8.30;5.93;;;20.10;99.90;;;;;;5098127;28;20024;-81
2023/08/06 04:50:19;;;;;;;9.32;5.55;;;20.10;99.90;;;;;;5108654;28;20097;-82
2023/08/06 04:52:45;;;;;;;9.70;5.68;;;20.10;99.90;;;;;;5114720;28;20081;-82
2023/08/06 04:55:11;;;;;;;8.35;4.65;;;20.00;99.90;;;;;;5107072;28;20035;-81
2023/08/06 04:57:37;;;;;;;6.97;4.75;;;20.00;99.90;;;;;;5104442;28;20061;-81
2023/08/06 05:00:04;;;;;;;9.73;5.28;;;20.10;99.90;;;;;;5104971;28;20036;-81
2023/08/06 05:02:32;;;;;;;6.78;4.63;;;20.10;99.90;;;;;;5106900;28;20032;-81
2023/08/06 05:04:58;;;;;;;6.90;4.88;;;20.10;99.90;;;;;;5107122;28;20085;-81
2023/08/06 05:07:24;;;;;;;7.53;3.85;;;20.10;99.90;;;;;;5101082;28;20030;-81
2023/08/06 05:09:49;;;;;;;6.75;3.78;;;20.10;99.90;;;;;;5104598;28;20110;-81
2023/08/06 05:12:15;;;;;;;6.30;3.95;;;20.10;99.90;;;;;;5109120;28;20139;-81
2023/08/06 05:14:41;;;;;;;6.03;3.85;;;20.10;99.90;;;;;;5107089;28;20377;-81
2023/08/06 05:17:07;;;;;;;5.10;3.35;;;20.10;99.90;;;;;;5105974;28;20024;-81
2023/08/06 05:19:32;;;;;;;4.72;3.50;;;20.10;99.90;;;;;;5108705;28;20032;-81
2023/08/06 05:21:58;;;;;;;5.40;3.50;;;20.20;99.90;;;;;;5108631;28;20385;-82
2023/08/06 05:24:24;;;;;;;5.18;2.80;;;20.40;99.90;;;;;;5112409;28;20381;-80
2023/08/06 05:26:49;;;;;;;4.78;2.70;;;20.40;99.90;;;;;;5107829;28;20100;-81
2023/08/06 05:29:16;;;;;;;8.50;3.05;;;20.50;99.90;;;;;;5108323;28;20028;-81
2023/08/06 05:31:42;;;;;;;4.43;2.83;;;20.50;99.90;;;;;;5107617;28;20047;-81
2023/08/06 05:34:09;;;;;;;4.45;2.53;;;20.50;99.90;;;;;;5107666;28;20390;-81
2023/08/06 05:36:34;;;;;;;8.80;2.45;;;20.50;99.90;;;;;;5103470;28;20356;-81
2023/08/06 05:39:00;;;;;;;4.30;2.50;;;20.50;99.90;;;;;;5104955;28;20030;-80
2023/08/06 05:41:26;;;;;;;6.47;2.50;;;20.50;99.90;;;;;;5108127;27;20412;-81
2023/08/06 05:43:51;;;;;;;4.60;2.47;;;20.40;99.90;;;;;;5107313;28;20020;-82
2023/08/06 05:46:17;;;;;;;6.30;3.00;;;20.40;99.90;;;;;;5107799;28;20038;-82
2023/08/06 05:48:43;;;;;;;5.72;2.97;;;20.40;99.90;;;;;;5108241;28;20381;-80
2023/08/06 05:51:09;;;;;;;3.60;2.53;;;20.40;99.90;;;;;;5102741;28;20478;-81
2023/08/06 05:53:34;;;;;;;4.60;2.67;;;20.40;99.90;;;;;;5103615;28;20112;-81
2023/08/06 05:56:00;;;;;;;8.27;2.70;;;20.40;99.90;;;;;;5107166;28;20027;-82
2023/08/06 05:58:29;;;;;;;4.13;2.10;;;20.40;99.90;;;;;;5114491;28;20031;-80
2023/08/06 06:00:54;;;;;;;8.60;2.20;;;20.40;99.90;;;;;;5103468;28;20016;-81
2023/08/06 06:03:20;;;;;;;3.78;1.50;;;20.50;99.90;;;;;;5108386;28;20028;-81
2023/08/06 06:05:46;;;;;;;2.50;1.70;;;20.60;99.90;;;;;;5101916;28;20088;-81
2023/08/06 06:08:12;;;;;;;3.80;1.80;;;20.70;99.90;;;;;;5102104;28;20027;-81
2023/08/06 06:13:11;;;;;;;2.50;1.40;;;20.60;99.90;;;;;;5183307;27;20652;-82
2023/08/06 06:15:38;;;;;;;2.38;1.30;;;20.60;99.90;;;;;;5150354;27;20472;-82
2023/08/06 06:18:03;;;;;;;1.75;1.08;;;20.70;99.90;;;;;;5144405;27;20113;-84
2023/08/06 06:20:31;;;;;;;1.63;1.10;;;20.70;99.90;;;;;;5173035;27;20464;-81
2023/08/06 06:22:57;;;;;;;1.50;1.00;;;20.80;99.90;;;;;;5147350;27;20026;-83
2023/08/06 06:25:23;;;;;;;4.07;0.90;;;20.80;99.90;;;;;;5165626;27;20023;-82
2023/08/06 06:27:50;;;;;;;1.63;1.10;;;20.80;99.90;;;;;;5154332;27;20022;-82
2023/08/06 06:30:15;;;;;;;1.85;0.90;;;20.90;99.90;;;;;;5173263;27;20035;-84
2023/08/06 06:32:41;;;;;;;3.35;1.00;;;21.00;99.90;;;;;;5150910;27;20437;-81
2023/08/06 06:35:07;;;;;;;3.03;0.80;;;21.00;99.90;;;;;;5146915;27;20048;-82
2023/08/06 06:37:33;;;;;;;1.27;0.80;;;21.00;99.90;;;;;;5172733;27;20027;-83
2023/08/06 06:39:59;;;;;;;2.13;0.88;;;21.00;99.90;;;;;;5153915;27;20106;-81
2023/08/06 06:42:25;;;;;;;1.17;0.60;;;;;;;;;;5153792;27;20080;-80
2023/08/06 06:44:51;;;;;;;2.25;0.73;;;21.10;99.90;;;;;;5154269;27;20033;-83
2023/08/06 06:47:17;;;;;;;2.28;0.60;;;21.20;99.90;;;;;;5153434;27;20030;-82
2023/08/06 06:49:42;;;;;;;1.40;0.60;;;21.20;99.90;;;;;;5153690;27;20034;-83
2023/08/06 06:52:08;;;;;;;0.88;0.60;;;21.20;99.90;;;;;;5172422;27;20022;-81
2023/08/06 06:54:34;;;;;;;1.15;0.70;;;21.30;99.90;;;;;;5153526;27;20037;-84
2023/08/06 06:57:00;;;;;;;4.68;0.80;;;21.30;99.90;;;;;;5154007;27;20075;-84
2023/08/06 06:59:25;;;;;;;3.47;0.65;;;21.20;99.90;;;;;;5172079;27;20019;-82
2023/08/06 07:01:51;;;;;;;3.50;0.77;;;21.20;99.90;;;;;;5153460;27;20478;-82
2023/08/06 07:04:17;;;;;;;2.13;0.80;;;21.20;99.90;;;;;;5153751;27;20031;-82
2023/08/06 07:06:43;;;;;;;1.38;0.93;;;;;;;;;;5153573;27;20376;-83
2023/08/06 07:09:09;;;;;;;1.75;0.85;;;;;;;;;;5171688;27;20022;-82
2023/08/06 07:11:35;;;;;;;2.00;0.75;;;21.50;99.90;;;;;;5152733;27;20042;-80
2023/08/06 07:14:01;;;;;;;1.92;0.80;;;21.80;99.90;;;;;;5152918;27;20030;-80
2023/08/06 07:16:27;;;;;;;2.42;0.70;;;21.80;99.90;;;;;;5152876;27;20070;-83
2023/08/06 07:18:54;;;;;;;1.27;0.73;;;21.80;99.90;;;;;;5153495;27;20030;-81
2023/08/06 07:21:20;;;;;;;0.98;0.70;;;21.70;99.90;;;;;;5145626;27;20030;-81
2023/08/06 07:26:17;;;;;;;0.93;0.70;;;21.60;99.90;;;;;;5114075;27;20333;-81
2023/08/06 07:28:44;;;;;;;5.22;0.73;;;21.60;99.90;;;;;;5090887;28;20077;-79
2023/08/06 07:31:10;;;;;;;1.75;0.82;;;21.60;99.90;;;;;;5110744;28;20093;-80
2023/08/06 07:33:35;;;;;;;4.50;0.98;;;21.50;99.90;;;;;;5092756;28;20446;-80
2023/08/06 07:36:08;;;;;;;1.92;0.98;;;21.50;99.90;;;;;;5086810;28;20050;-79
2023/08/06 07:38:34;;;;;;;1.30;0.88;;;21.50;99.90;;;;;;5092746;28;20024;-80
2023/08/06 07:41:02;;;;;;;1.77;0.77;;;;;;;;;;5092663;28;20111;-78
2023/08/06 07:43:28;;;;;;;1.38;0.70;;;;;;;;;;5091855;28;20054;-79
2023/08/06 07:45:54;;;;;;;1.00;0.57;;;;;;;;;;5091720;28;20032;-78
2023/08/06 07:48:20;;;;;;;0.85;0.60;;;;;;;;;;5107837;28;20023;-79
2023/08/06 07:50:50;;;;;;;1.05;0.70;;;;;;;;;;5092214;28;20020;-81
2023/08/06 07:53:16;;;;;;;1.45;0.77;;;;;;;;;;5092034;28;20028;-80
2023/08/06 07:55:42;;;;;;;1.92;0.70;;;;;;;;;;5091747;28;20521;-81
2023/08/06 07:58:08;;;;;;;1.80;0.68;;;;;;;;;;5110272;28;20446;-79
2023/08/06 08:00:35;;;;;;;1.13;0.50;;;;;;;;;;5091988;28;20023;-81
2023/08/06 08:03:01;;;;;;;0.93;0.40;;;;;;;;;;5110262;28;20035;-80
2023/08/06 08:05:27;;;;;;;1.70;0.70;;;;;;;;;;5110260;28;20386;-78
2023/08/06 08:07:54;;;;;;;1.02;0.80;;;;;;;;;;5110851;28;20032;-80
2023/08/06 08:10:20;;;;;;;0.80;0.60;;;;;;;;;;5110454;28;20446;-79
2023/08/06 08:12:47;;;;;;;0.75;0.50;;;;;;;;;;5110106;28;20421;-80
2023/08/06 08:15:13;;;;;;;4.85;0.60;;;;;;;;;;5091030;28;20030;-79
2023/08/06 08:17:40;;;;;;;1.08;0.60;;;;;;;;;;5092109;28;20481;-79
2023/08/06 08:20:06;;;;;;;3.80;0.93;;;;;;;;;;5092699;28;20020;-79
2023/08/06 08:22:32;;;;;;;4.63;0.70;;;;;;;;;;5092705;28;20024;-79
2023/08/06 08:24:58;;;;;;;1.52;0.60;;;;;;;;;;5100402;28;20050;-79
2023/08/06 08:27:26;;;;;;;2.78;0.68;;;;;;;;;;5090150;28;20024;-80
2023/08/06 08:29:52;;;;;;;4.60;0.70;;;;;;;;;;5090148;28;20086;-79
2023/08/06 08:32:18;;;;;;;1.52;0.50;;;;;;;;;;5089994;28;20033;-80
2023/08/06 08:34:44;;;;;;;3.22;0.77;;;;;;;;;;5070677;28;20039;-80
2023/08/06 08:37:10;;;;;;;1.45;0.65;;;;;;;;;;5078424;28;20017;-80
2023/08/06 08:39:36;;;;;;;2.22;0.68;;;;;;;;;;5076195;28;20085;-79
2023/08/06 08:42:03;;;;;;;1.38;0.55;;;;;;;;;;5076094;28;20050;-78
2023/08/06 08:44:32;;;;;;;0.75;0.55;;;;;;;;;;5075665;28;20039;-79
2023/08/06 08:46:58;;;;;;;0.60;0.40;;;;;;;;;;5076340;28;20470;-78
2023/08/06 08:49:25;;;;;;;1.55;0.50;;;;;;;;;;5076286;28;20035;-78
2023/08/06 08:51:51;;;;;;;1.23;0.50;;;;;;;;;;5057910;28;20115;-79
2023/08/06 08:54:18;;;;;;;1.75;0.43;;;;;;;;;;5076101;28;20036;-79
2023/08/06 08:56:45;;;;;;;0.85;0.55;;;;;;;;;;5058220;28;20020;-79
2023/08/06 08:59:11;;;;;;;1.58;0.50;;;;;;;;;;5075531;28;20489;-80
2023/08/06 09:01:37;;;;;;;2.33;0.60;;;;;;;;;;5058294;28;20053;-80
2023/08/06 09:04:05;;;;;;;2.47;0.50;;;;;;;;;;5057915;28;20356;-81
2023/08/06 09:06:33;;;;;;;4.45;0.60;;;;;;;;;;5057661;28;20029;-79
2023/08/06 09:09:07;;;;;;;1.13;0.52;;;;;;;;;;5048245;28;20029;-82
2023/08/06 09:11:39;;;;;;;5.88;0.50;;;;;;;;;;5063454;28;20530;-79
2023/08/06 09:14:08;;;;;;;0.73;0.50;;;;;;;;;;5075504;28;20458;-81
2023/08/06 09:16:37;;;;;;;2.15;0.30;;;;;;;;;;5075531;28;20095;-79
2023/08/06 09:19:12;;;;;;;0.55;0.40;;;;;;;;;;5057838;28;20086;-79
2023/08/06 09:21:38;;;;;;;0.75;0.50;;;;;;;;;;5075763;28;20397;-78
2023/08/06 09:24:11;;;;;;;1.95;0.45;;;;;;;;;;5075272;28;20097;-79
2023/08/06 09:26:44;;;;;;;0.65;0.55;;;;;;;;;;5057505;28;20031;-80
2023/08/06 09:29:14;;;;;;;1.10;0.45;;;;;;;;;;5057635;28;20032;-81
2023/08/06 09:31:47;;;;;;;2.88;0.40;;;;;;;;;;5075571;28;20021;-79
2023/08/06 09:34:21;;;;;;;0.43;0.28;;;;;;;;;;5074698;28;20032;-80
2023/08/06 09:38:21;;;;;;;0.70;0.40;;;;;;;;;;5111817;27;19911;-80
2023/08/06 09:40:48;;;;;;;1.70;0.32;;;;;;;;;;5072947;28;20473;-79
2023/08/06 09:43:14;;;;;;;0.40;0.30;;;;;;;;;;5053115;28;20023;-80
2023/08/06 09:45:40;;;;;;;2.47;0.30;;;;;;;;;;5053153;28;20020;-78
2023/08/06 09:48:07;;;;;;;0.38;0.20;;;;;;;;;;5052739;28;20032;-80
2023/08/06 09:50:38;;;;;;;2.35;0.40;;;;;;;;;;5070964;28;20025;-77
2023/08/06 09:53:04;;;;;;;3.20;0.30;;;;;;;;;;5053126;28;20023;-79
2023/08/06 09:55:30;;;;;;;1.85;0.45;;;;;;;;;;5052468;28;20090;-79
2023/08/06 09:57:57;;;;;;;0.40;0.30;;;;;;;;;;5052611;28;20032;-79
2023/08/06 10:00:24;;;;;;;0.55;0.38;;;;;;;;;;5070562;28;20370;-79
2023/08/06 10:02:54;;;;;;;0.70;0.30;;;;;;;;;;5069929;28;20020;-77
2023/08/06 10:05:20;;;;;;;0.57;0.28;;;;;;;;;;5070874;28;20495;-80
2023/08/06 10:13:22;;;;;;;0.30;0.20;;;;;;;;;;5102438;27;20318;-79
2023/08/06 10:15:49;;;;;;;0.30;0.20;;;;;;;;;;5086290;28;20075;-77
2023/08/06 10:18:20;;;;;;;0.50;0.30;;;;;;;;;;5073382;28;20366;-81
2023/08/06 10:20:47;;;;;;;1.08;0.40;;;;;;;;;;5089632;28;20023;-81
2023/08/06 10:23:14;;;;;;;0.50;0.38;;;;;;;;;;5089106;28;20009;-82
2023/08/06 10:25:43;;;;;;;3.33;0.60;;;;;;;;;;5089610;28;20029;-81
2023/08/06 10:28:11;;;;;;;1.63;0.40;;;;;;;;;;5088574;28;20020;-81
2023/08/06 10:30:47;;;;;;;0.55;0.20;;;;;;;;;;5078638;28;20008;-81
2023/08/06 10:33:13;;;;;;;1.70;0.38;;;;;;;;;;5089737;28;20024;-80
2023/08/06 10:35:50;;;;;;;0.30;0.22;;;;;;;;;;5090842;28;20355;-80
2023/08/06 10:38:25;;;;;;;0.68;0.40;;;;;;;;;;5090440;28;20013;-81
2023/08/06 10:40:51;;;;;;;2.00;0.40;;;;;;;;;;5089635;28;20043;-79
2023/08/06 10:43:27;;;;;;;0.35;0.17;;;;;;;;;;5090382;28;20020;-81
2023/08/06 10:45:53;;;;;;;0.75;0.38;;;;;;;;;;5089500;28;20104;-81
2023/08/06 10:48:34;;;;;;;1.27;0.40;;;;;;;;;;5089550;28;20043;-81
2023/08/06 10:51:01;;;;;;;0.35;0.30;;;;;;;;;;5090500;28;20024;-79
2023/08/06 10:53:27;;;;;;;1.60;0.32;;;;;;;;;;5090626;28;20047;-80
2023/08/06 10:55:53;;;;;;;1.38;0.40;;;;;;;;;;5090513;28;20020;-80
2023/08/06 11:00:48;;;;;;;0.70;0.30;;;;;;;;;;5083149;28;20295;-82
2023/08/06 11:03:15;;;;;;;0.43;0.20;;;;;;;;;;5070936;28;20494;-81
2023/08/06 11:05:41;;;;;;;0.30;0.30;;;;;;;;;;5069489;28;20534;-81
2023/08/06 11:08:07;;;;;;;0.85;0.40;;;;;;;;;;5069809;28;20040;-81
2023/08/06 11:10:34;;;;;;;1.90;0.20;;;;;;;;;;5069698;28;20455;-78
2023/08/06 11:13:07;;;;;;;0.20;0.20;;;;;;;;;;5069334;28;20087;-78
2023/08/06 11:15:33;;;;;;;1.33;0.25;;;;;;;;;;5070610;28;20025;-77
2023/08/06 11:18:00;;;;;;;1.30;0.30;;;;;;;;;;5069270;28;20016;-77
2023/08/06 11:20:26;;;;;;;1.02;0.40;;;;;;;;;;5069145;28;20029;-78
2023/08/06 11:22:52;;;;;;;2.03;0.85;;;;;;;;;;5070948;28;20070;-78
2023/08/06 11:25:21;;;;;;;0.43;0.20;;;;;;;;;;5067918;28;20017;-77
2023/08/06 11:27:48;;;;;;;3.40;0.52;;;;;;;;;;5069980;28;20017;-78
2023/08/06 11:30:15;;;;;;;1.63;0.60;;;;;;;;;;5068543;28;20027;-78
2023/08/06 11:32:47;;;;;;;2.15;1.00;;;;;;;;;;5068393;28;20021;-76
2023/08/06 11:35:14;;;;;;;1.15;0.60;;;;;;;;;;5069568;28;20025;-78
2023/08/06 11:37:44;;;;;;;0.80;0.45;;;;;;;;;;5070131;28;20035;-77
2023/08/06 11:40:14;;;;;;;1.20;0.60;;;;;;;;;;5069330;28;20060;-79
2023/08/06 11:42:40;;;;;;;1.58;0.70;;;;;;;;;;5070015;28;20067;-77
2023/08/06 11:45:08;;;;;;;1.38;0.50;;;;;;;;;;5069732;28;20027;-78
2023/08/06 11:47:34;;;;;;;0.70;0.38;;;;;;;;;;5069708;28;20017;-77
2023/08/06 11:50:00;;;;;;;1.83;0.70;;;;;;;;;;5068040;28;20027;-80
2023/08/06 11:52:27;;;;;;;1.35;0.60;;;;;;;;;;5069049;28;20024;-79
2023/08/06 11:55:13;;;;;;;1.15;0.40;;;;;;;;;;5068766;28;20017;-77
2023/08/06 11:57:40;;;;;;;1.58;0.50;;;;;;;;;;5068199;28;20017;-78
2023/08/06 12:00:10;;;;;;;1.05;0.40;;;;;;;;;;5084581;28;20051;-78
2023/08/06 12:33:58;;;;;;;2.45;0.50;;;;;;;;;;5070726;28;20379;-81
2023/08/06 12:36:24;;;;;;;0.77;0.47;;;;;;;;;;5070760;28;20037;-81
2023/08/06 12:38:51;;;;;;;0.65;0.43;;;;;;;;;;5071124;28;20021;-79
2023/08/06 12:41:17;;;;;;;1.13;0.65;;;;;;;;;;5071120;28;20100;-80
2023/08/06 12:43:43;;;;;;;0.77;0.57;;;23.40;99.90;;;;;;5069469;28;20021;-79
2023/08/06 12:46:09;;;;;;;1.75;0.47;;;23.30;99.90;;;;;;5069950;28;20021;-81
2023/08/06 12:48:36;;;;;;;1.20;0.47;;;23.20;99.90;;;;;;5069646;28;20028;-80
2023/08/06 12:51:02;;;;;;;5.85;1.00;;;23.10;99.90;;;;;;5070806;28;20513;-79
2023/08/06 12:53:27;;;;;;;6.63;0.80;;;22.80;99.90;;;;;;5070215;28;20029;-80
2023/08/06 12:55:53;;;;;;;1.58;0.52;;;22.40;99.90;;;;;;5069465;28;20029;-80
2023/08/06 13:00:52;;;;;;;10.85;0.80;;;21.80;99.90;;;;;;5106778;27;20323;-80
2023/08/06 13:03:18;;;;;;;7.97;1.60;;;21.60;99.90;;;;;;5084129;28;20454;-78
2023/08/06 13:07:49;;;;;;;25.30;3.67;;;21.20;99.90;;;;;;5114999;27;20113;-76
2023/08/06 13:10:14;;;;;;;9.00;3.20;;;20.80;99.90;;;;;;5110072;28;20111;-76
2023/08/06 13:12:40;;;;;;;10.80;2.85;;;20.50;99.90;;;;;;5109243;28;20339;-79
2023/08/06 13:15:07;;;;;;;10.18;2.13;;;20.30;99.90;;;;;;5076339;28;20016;-79
2023/08/06 13:17:32;;;;;;;6.85;1.70;;;20.30;99.90;;;;;;5094345;28;20335;-76
2023/08/06 13:19:58;;;;;;;6.18;1.33;;;20.20;99.90;;;;;;5110712;28;20027;-76
2023/08/06 13:22:24;;;;;;;8.27;1.08;;;;;;;;;;5094506;28;20023;-78
2023/08/06 13:24:50;;;;;;;8.43;2.13;;;;;;;;;;5090788;28;20025;-77
2023/08/06 13:27:16;;;;;;;6.60;1.40;;;19.80;99.90;;;;;;5090750;28;20043;-77
2023/08/06 13:29:42;;;;;;;8.75;1.48;;;19.80;99.90;;;;;;5094320;28;20446;-78
2023/08/06 13:32:07;;;;;;;5.38;1.50;;;19.70;99.90;;;;;;5092855;28;20046;-78
2023/08/06 13:34:33;;;;;;;13.10;3.08;;;19.60;99.90;;;;;;5111226;28;20072;-79
2023/08/06 13:36:59;;;;;;;7.53;1.80;;;19.60;99.90;;;;;;5110918;28;20495;-77
2023/08/06 13:39:24;;;;;;;3.22;0.90;;;19.60;99.90;;;;;;5092602;28;20020;-77
2023/08/06 13:41:50;;;;;;;9.38;2.90;;;19.60;99.90;;;;;;5092873;28;20019;-79
2023/08/06 13:44:16;;;;;;;6.50;1.90;;;19.60;99.90;;;;;;5110826;28;20027;-79
2023/08/06 13:46:42;;;;;;;6.00;1.65;;;;;;;;;;5092511;28;20027;-79
2023/08/06 13:49:08;;;;;;;10.30;2.10;;;19.50;99.90;;;;;;5092369;28;20496;-78
2023/08/06 13:51:35;;;;;;;6.50;1.80;;;19.60;99.90;;;;;;5092106;28;20020;-78
2023/08/06 13:54:01;;;;;;;3.85;1.35;;;19.50;99.90;;;;;;5110616;28;20016;-81
2023/08/06 13:56:27;;;;;;;8.55;2.10;;;19.50;99.90;;;;;;5109148;28;20031;-80
2023/08/06 13:58:52;;;;;;;6.40;2.60;;;19.50;99.90;;;;;;5110216;28;20464;-78
2023/08/06 14:01:21;;;;;;;4.10;2.55;;;19.60;99.90;;;;;;5110112;28;20031;-78
2023/08/06 14:03:47;;;;;;;6.13;3.03;;;19.80;99.90;;;;;;5110821;28;20015;-80
2023/08/06 14:06:13;;;;;;;5.13;3.30;;;20.00;99.90;;;;;;5099762;28;20052;-80
2023/08/06 14:08:39;;;;;;;5.68;3.60;;;;;;;;;;5059846;28;20020;-78